Aviation Digital Data Service (ADDS)

Output produced by METARs form (1327 UTC 23 January 2019)
found at http://www.aviationweather.gov/metar/data/
 
METAR text: ETNG 231250Z 07008KT 7000 BKN035 M01/M03 Q0999 NOSIG
Conditions at: ETNG (GEILENKIRCHEN(NA, DE) observed 1250 UTC 23 January 2019
Temperature: -1.0°C (30°F)
Dewpoint: -3.0°C (27°F) [RH = 86%]
Pressure (altimeter): 29.50 inches Hg (999.0 mb)
Winds: from the ENE (70 degrees) at 9 MPH (8 knots; 4.1 m/s)
Visibility: 4 miles ( 7 km)
Ceiling: 3500 feet AGL
Clouds: broken clouds at 3500 feet AGL
Weather: no significant weather observed at this time

METAR text: ETNG 231150Z 09009KT 7000 BKN039 M01/M03 Q0998 NOSIG
Conditions at: ETNG (GEILENKIRCHEN(NA, DE) observed 1150 UTC 23 January 2019
Temperature: -1.0°C (30°F)
Dewpoint: -3.0°C (27°F) [RH = 86%]
Pressure (altimeter): 29.47 inches Hg (998.0 mb)
Winds: from the E (90 degrees) at 10 MPH (9 knots; 4.6 m/s)
Visibility: 4 miles ( 7 km)
Ceiling: 3900 feet AGL
Clouds: broken clouds at 3900 feet AGL
Weather: no significant weather observed at this time

METAR text: ETNG 231050Z 09009KT 8000 BKN035 M01/M03 Q0998 NOSIG
Conditions at: ETNG (GEILENKIRCHEN(NA, DE) observed 1050 UTC 23 January 2019
Temperature: -1.0°C (30°F)
Dewpoint: -3.0°C (27°F) [RH = 86%]
Pressure (altimeter): 29.47 inches Hg (998.0 mb)
Winds: from the E (90 degrees) at 10 MPH (9 knots; 4.6 m/s)
Visibility: 5 miles ( 8 km)
Ceiling: 3500 feet AGL
Clouds: broken clouds at 3500 feet AGL
Weather: no significant weather observed at this time

METAR text: ETNG 230950Z 08007KT 8000 BKN033 M02/M04 Q0997 NOSIG
Conditions at: ETNG (GEILENKIRCHEN(NA, DE) observed 0950 UTC 23 January 2019
Temperature: -2.0°C (28°F)
Dewpoint: -4.0°C (25°F) [RH = 86%]
Pressure (altimeter): 29.44 inches Hg (997.0 mb)
Winds: from the E (80 degrees) at 8 MPH (7 knots; 3.6 m/s)
Visibility: 5 miles ( 8 km)
Ceiling: 3300 feet AGL
Clouds: broken clouds at 3300 feet AGL
Weather: no significant weather observed at this time

METAR text: ETNG 230850Z 10006KT 8000 BKN037 BKN200 M03/M04 Q0997 NOSIG
Conditions at: ETNG (GEILENKIRCHEN(NA, DE) observed 0850 UTC 23 January 2019
Temperature: -3.0°C (27°F)
Dewpoint: -4.0°C (25°F) [RH = 93%]
Pressure (altimeter): 29.44 inches Hg (997.0 mb)
Winds: from the E (100 degrees) at 7 MPH (6 knots; 3.1 m/s)
Visibility: 5 miles ( 8 km)
Ceiling: 3700 feet AGL
Clouds: broken clouds at 3700 feet AGL
broken clouds at 20000 feet AGL
Weather: no significant weather observed at this time

METAR text: ETNG 230750Z 08007KT 6000 FEW040 SCT200 M07/M08 Q0997 NOSIG
Conditions at: ETNG (GEILENKIRCHEN(NA, DE) observed 0750 UTC 23 January 2019
Temperature: -7.0°C (19°F)
Dewpoint: -8.0°C (18°F) [RH = 93%]
Pressure (altimeter): 29.44 inches Hg (997.0 mb)
Winds: from the E (80 degrees) at 8 MPH (7 knots; 3.6 m/s)
Visibility: 4 miles ( 6 km)
Ceiling: at least 12,000 feet AGL
Clouds: few clouds at 4000 feet AGL
scattered clouds at 20000 feet AGL
Weather: no significant weather observed at this time

METAR text: ETNG 230650Z 07006KT 7000 FEW030 SCT200 M07/M08 Q0996 NOSIG
Conditions at: ETNG (GEILENKIRCHEN(NA, DE) observed 0650 UTC 23 January 2019
Temperature: -7.0°C (19°F)
Dewpoint: -8.0°C (18°F) [RH = 93%]
Pressure (altimeter): 29.41 inches Hg (996.0 mb)
Winds: from the ENE (70 degrees) at 7 MPH (6 knots; 3.1 m/s)
Visibility: 4 miles ( 7 km)
Ceiling: at least 12,000 feet AGL
Clouds: few clouds at 3000 feet AGL
scattered clouds at 20000 feet AGL
Weather: no significant weather observed at this time

METAR text: ETNG 230550Z 11005KT 8000 FEW030 BKN200 M03/M04 Q0996
Conditions at: ETNG (GEILENKIRCHEN(NA, DE) observed 0550 UTC 23 January 2019
Temperature: -3.0°C (27°F)
Dewpoint: -4.0°C (25°F) [RH = 93%]
Pressure (altimeter): 29.41 inches Hg (996.0 mb)
Winds: from the ESE (110 degrees) at 6 MPH (5 knots; 2.6 m/s)
Visibility: 5 miles ( 8 km)
Ceiling: 20000 feet AGL
Clouds: few clouds at 3000 feet AGL
broken clouds at 20000 feet AGL
Weather: no significant weather observed at this time

METAR text: ETNG 230450Z 11004KT 7000 BKN028 BKN200 M03/M04 Q0997
Conditions at: ETNG (GEILENKIRCHEN(NA, DE) observed 0450 UTC 23 January 2019
Temperature: -3.0°C (27°F)
Dewpoint: -4.0°C (25°F) [RH = 93%]
Pressure (altimeter): 29.44 inches Hg (997.0 mb)
Winds: from the ESE (110 degrees) at 5 MPH (4 knots; 2.1 m/s)
Visibility: 4 miles ( 7 km)
Ceiling: 2800 feet AGL
Clouds: broken clouds at 2800 feet AGL
broken clouds at 20000 feet AGL
Weather: no significant weather observed at this time

METAR text: ETNG 230350Z 10005KT 6000 BKN028 BKN200 M04/M05 Q0997
Conditions at: ETNG (GEILENKIRCHEN(NA, DE) observed 0350 UTC 23 January 2019
Temperature: -4.0°C (25°F)
Dewpoint: -5.0°C (23°F) [RH = 93%]
Pressure (altimeter): 29.44 inches Hg (997.0 mb)
Winds: from the E (100 degrees) at 6 MPH (5 knots; 2.6 m/s)
Visibility: 4 miles ( 6 km)
Ceiling: 2800 feet AGL
Clouds: broken clouds at 2800 feet AGL
broken clouds at 20000 feet AGL
Weather: no significant weather observed at this time

METAR text: ETNG 230250Z 11004KT 9999 FEW030 BKN040 BKN200 M02/M04 Q0997
Conditions at: ETNG (GEILENKIRCHEN(NA, DE) observed 0250 UTC 23 January 2019
Temperature: -2.0°C (28°F)
Dewpoint: -4.0°C (25°F) [RH = 86%]
Pressure (altimeter): 29.44 inches Hg (997.0 mb)
Winds: from the ESE (110 degrees) at 5 MPH (4 knots; 2.1 m/s)
Visibility: 6 or more miles (10+ km)
Ceiling: 4000 feet AGL
Clouds: few clouds at 3000 feet AGL
broken clouds at 4000 feet AGL
broken clouds at 20000 feet AGL
Weather: no significant weather observed at this time

METAR text: ETNG 230150Z 14004KT 9999 FEW025 BKN035 M01/M03 Q0998
Conditions at: ETNG (GEILENKIRCHEN(NA, DE) observed 0150 UTC 23 January 2019
Temperature: -1.0°C (30°F)
Dewpoint: -3.0°C (27°F) [RH = 86%]
Pressure (altimeter): 29.47 inches Hg (998.0 mb)
Winds: from the SE (140 degrees) at 5 MPH (4 knots; 2.1 m/s)
Visibility: 6 or more miles (10+ km)
Ceiling: 3500 feet AGL
Clouds: few clouds at 2500 feet AGL
broken clouds at 3500 feet AGL
Weather: no significant weather observed at this time

METAR text: ETNG 230050Z 14004KT 9999 FEW025 BKN035 M01/M03 Q0998
Conditions at: ETNG (GEILENKIRCHEN(NA, DE) observed 0050 UTC 23 January 2019
Temperature: -1.0°C (30°F)
Dewpoint: -3.0°C (27°F) [RH = 86%]
Pressure (altimeter): 29.47 inches Hg (998.0 mb)
Winds: from the SE (140 degrees) at 5 MPH (4 knots; 2.1 m/s)
Visibility: 6 or more miles (10+ km)
Ceiling: 3500 feet AGL
Clouds: few clouds at 2500 feet AGL
broken clouds at 3500 feet AGL
Weather: no significant weather observed at this time

METAR text: ETNG 222350Z 16003KT 9999 SCT025 BKN035 M01/M03 Q0999
Conditions at: ETNG (GEILENKIRCHEN(NA, DE) observed 2350 UTC 22 January 2019
Temperature: -1.0°C (30°F)
Dewpoint: -3.0°C (27°F) [RH = 86%]
Pressure (altimeter): 29.50 inches Hg (999.0 mb)
Winds: from the SSE (160 degrees) at 3 MPH (3 knots; 1.5 m/s)
Visibility: 6 or more miles (10+ km)
Ceiling: 3500 feet AGL
Clouds: scattered clouds at 2500 feet AGL
broken clouds at 3500 feet AGL
Weather: no significant weather observed at this time

METAR text: ETNG 222250Z 13003KT 9999 BKN015 BKN020 M01/M03 Q1000
Conditions at: ETNG (GEILENKIRCHEN(NA, DE) observed 2250 UTC 22 January 2019
Temperature: -1.0°C (30°F)
Dewpoint: -3.0°C (27°F) [RH = 86%]
Pressure (altimeter): 29.53 inches Hg (1000.0 mb)
Winds: from the SE (130 degrees) at 3 MPH (3 knots; 1.5 m/s)
Visibility: 6 or more miles (10+ km)
Ceiling: 1500 feet AGL
Clouds: broken clouds at 1500 feet AGL
broken clouds at 2000 feet AGL
Weather: no significant weather observed at this time

METAR text: ETNG 222150Z 12002KT 9999 BKN017 M01/M03 Q1000
Conditions at: ETNG (GEILENKIRCHEN(NA, DE) observed 2150 UTC 22 January 2019
Temperature: -1.0°C (30°F)
Dewpoint: -3.0°C (27°F) [RH = 86%]
Pressure (altimeter): 29.53 inches Hg (1000.0 mb)
Winds: from the ESE (120 degrees) at 2 MPH (2 knots; 1.0 m/s)
Visibility: 6 or more miles (10+ km)
Ceiling: 1700 feet AGL
Clouds: broken clouds at 1700 feet AGL
Weather: no significant weather observed at this time

METAR text: ETNG 222050Z 10002KT 7000 FEW015 BKN020 M02/M02 Q1001
Conditions at: ETNG (GEILENKIRCHEN(NA, DE) observed 2050 UTC 22 January 2019
Temperature: -2.0°C (28°F)
Dewpoint: -2.0°C (28°F) [RH = 100%]
Pressure (altimeter): 29.56 inches Hg (1001.0 mb)
Winds: from the E (100 degrees) at 2 MPH (2 knots; 1.0 m/s)
Visibility: 4 miles ( 7 km)
Ceiling: 2000 feet AGL
Clouds: few clouds at 1500 feet AGL
broken clouds at 2000 feet AGL
Weather: no significant weather observed at this time

METAR text: ETNG 221950Z 11002KT 7000 FEW006 BKN018 M02/M02 Q1001
Conditions at: ETNG (GEILENKIRCHEN(NA, DE) observed 1950 UTC 22 January 2019
Temperature: -2.0°C (28°F)
Dewpoint: -2.0°C (28°F) [RH = 100%]
Pressure (altimeter): 29.56 inches Hg (1001.0 mb)
Winds: from the ESE (110 degrees) at 2 MPH (2 knots; 1.0 m/s)
Visibility: 4 miles ( 7 km)
Ceiling: 1800 feet AGL
Clouds: few clouds at 600 feet AGL
broken clouds at 1800 feet AGL
Weather: no significant weather observed at this time

METAR text: ETNG 221850Z 15003KT 1500 -SN BR SCT006 BKN012 BKN022 M02/M03 Q1002 RESN
Conditions at: ETNG (GEILENKIRCHEN(NA, DE) observed 1850 UTC 22 January 2019
Temperature: -2.0°C (28°F)
Dewpoint: -3.0°C (27°F) [RH = 93%]
Pressure (altimeter): 29.59 inches Hg (1002.0 mb)
Winds: from the SSE (150 degrees) at 3 MPH (3 knots; 1.5 m/s)
Visibility: 0.93 miles (1.50 km)
Ceiling: 1200 feet AGL
Clouds: scattered clouds at 600 feet AGL
broken clouds at 1200 feet AGL
broken clouds at 2200 feet AGL
Weather: -SN BR  (light snow, mist)

METAR text: ETNG 221750Z 17004KT 1200 SN BR BKN005 BKN010 M02/M03 Q1002
Conditions at: ETNG (GEILENKIRCHEN(NA, DE) observed 1750 UTC 22 January 2019
Temperature: -2.0°C (28°F)
Dewpoint: -3.0°C (27°F) [RH = 93%]
Pressure (altimeter): 29.59 inches Hg (1002.0 mb)
Winds: from the S (170 degrees) at 5 MPH (4 knots; 2.1 m/s)
Visibility: 0.75 miles (1.21 km)
Ceiling: 500 feet AGL
Clouds: broken clouds at 500 feet AGL
broken clouds at 1000 feet AGL
Weather: SN BR  (moderate snow, mist)

METAR text: ETNG 221650Z 16003KT 1700 R27/4200 -SN BR FEW006 BKN010 BKN022 M02/M03 Q1002 RESN NOSIG
Conditions at: ETNG (GEILENKIRCHEN(NA, DE) observed 1650 UTC 22 January 2019
Temperature: -2.0°C (28°F)
Dewpoint: -3.0°C (27°F) [RH = 93%]
Pressure (altimeter): 29.59 inches Hg (1002.0 mb)
Winds: from the SSE (160 degrees) at 3 MPH (3 knots; 1.5 m/s)
Visibility: 1.06 miles (1.71 km)
Ceiling: 1000 feet AGL
Clouds: few clouds at 600 feet AGL
broken clouds at 1000 feet AGL
broken clouds at 2200 feet AGL
Weather: -SN BR  (light snow, mist)

METAR text: ETNG 221550Z 16004KT 1500 R27/2000 -SN BR BKN006 BKN010 M02/M03 Q1003 RESN NOSIG
Conditions at: ETNG (GEILENKIRCHEN(NA, DE) observed 1550 UTC 22 January 2019
Temperature: -2.0°C (28°F)
Dewpoint: -3.0°C (27°F) [RH = 93%]
Pressure (altimeter): 29.62 inches Hg (1003.0 mb)
Winds: from the SSE (160 degrees) at 5 MPH (4 knots; 2.1 m/s)
Visibility: 0.93 miles (1.50 km)
Ceiling: 600 feet AGL
Clouds: broken clouds at 600 feet AGL
broken clouds at 1000 feet AGL
Weather: -SN BR  (light snow, mist)

METAR text: ETNG 221450Z 18006KT 1100 R27/1400 SN BKN005 M02/M03 Q1003 RESN TEMPO 4000 -SN
Conditions at: ETNG (GEILENKIRCHEN(NA, DE) observed 1450 UTC 22 January 2019
Temperature: -2.0°C (28°F)
Dewpoint: -3.0°C (27°F) [RH = 93%]
Pressure (altimeter): 29.62 inches Hg (1003.0 mb)
Winds: from the S (180 degrees) at 7 MPH (6 knots; 3.1 m/s)
Visibility: 0.68 miles (1.09 km)
Ceiling: 500 feet AGL
Clouds: broken clouds at 500 feet AGL
Weather: SN  (moderate snow)

METAR text: ETNG 221402Z 18004KT 0900 R27/1000 +SN BKN005 M01/M03 Q1004 TEMPO 2000 SN
Conditions at: ETNG (GEILENKIRCHEN(NA, DE) observed 1402 UTC 22 January 2019
Temperature: -1.0°C (30°F)
Dewpoint: -3.0°C (27°F) [RH = 86%]
Pressure (altimeter): 29.65 inches Hg (1004.0 mb)
Winds: from the S (180 degrees) at 5 MPH (4 knots; 2.1 m/s)
Visibility: 0.56 miles (0.90 km)
Ceiling: 500 feet AGL
Clouds: broken clouds at 500 feet AGL
Weather: +SN  (heavy snow)

METAR text: ETNG 221350Z 19006KT 1300 R27/1200 SN BKN005 BKN010 M01/M04 Q1004 TEMPO 4500 -SN
Conditions at: ETNG (GEILENKIRCHEN(NA, DE) observed 1350 UTC 22 January 2019
Temperature: -1.0°C (30°F)
Dewpoint: -4.0°C (25°F) [RH = 80%]
Pressure (altimeter): 29.65 inches Hg (1004.0 mb)
Winds: from the S (190 degrees) at 7 MPH (6 knots; 3.1 m/s)
Visibility: 0.81 miles (1.30 km)
Ceiling: 500 feet AGL
Clouds: broken clouds at 500 feet AGL
broken clouds at 1000 feet AGL
Weather: SN  (moderate snow)

METAR text: ETNG 221330Z 19006KT 1500 R27/2700 SN SCT010 BKN022 00/M05 Q1004 TEMPO 4500 -SN BKN010
Conditions at: ETNG (GEILENKIRCHEN(NA, DE) observed 1330 UTC 22 January 2019
Temperature: 0.0°C (32°F)
Dewpoint: -5.0°C (23°F) [RH = 69%]
Pressure (altimeter): 29.65 inches Hg (1004.0 mb)
Winds: from the S (190 degrees) at 7 MPH (6 knots; 3.1 m/s)
Visibility: 0.93 miles (1.50 km)
Ceiling: 2200 feet AGL
Clouds: scattered clouds at 1000 feet AGL
broken clouds at 2200 feet AGL
Weather: SN  (moderate snow)

METAR text: ETNG 221323Z 19006KT 2500 SN FEW015 BKN024 00/M06 Q1004 TEMPO 4500 -SN BKN010
Conditions at: ETNG (GEILENKIRCHEN(NA, DE) observed 1323 UTC 22 January 2019
Temperature: 0.0°C (32°F)
Dewpoint: -6.0°C (21°F) [RH = 64%]
Pressure (altimeter): 29.65 inches Hg (1004.0 mb)
Winds: from the S (190 degrees) at 7 MPH (6 knots; 3.1 m/s)
Visibility: 1.55 miles (2.49 km)
Ceiling: 2400 feet AGL
Clouds: few clouds at 1500 feet AGL
broken clouds at 2400 feet AGL
Weather: SN  (moderate snow)

METAR text: ETNG 221250Z 20008KT 9999 BKN024 00/M08 Q1005 BECMG 3000 -SN BKN010
Conditions at: ETNG (GEILENKIRCHEN(NA, DE) observed 1250 UTC 22 January 2019
Temperature: 0.0°C (32°F)
Dewpoint: -8.0°C (18°F) [RH = 55%]
Pressure (altimeter): 29.68 inches Hg (1005.0 mb)
Winds: from the SSW (200 degrees) at 9 MPH (8 knots; 4.1 m/s)
Visibility: 6 or more miles (10+ km)
Ceiling: 2400 feet AGL
Clouds: broken clouds at 2400 feet AGL
Weather: no significant weather observed at this time

METAR text: ETNG 221150Z 18009KT CAVOK 01/M08 Q1005 BECMG 3000 -SN BKN010
Conditions at: ETNG (GEILENKIRCHEN(NA, DE) observed 1150 UTC 22 January 2019
Temperature: 1.0°C (34°F)
Dewpoint: -8.0°C (18°F) [RH = 51%]
Pressure (altimeter): 29.68 inches Hg (1005.0 mb)
Winds: from the S (180 degrees) at 10 MPH (9 knots; 4.6 m/s)
Visibility: 6 or more miles (10+ km)
Ceiling: ceiling and visibility are OK
Clouds: unknown
Weather: no significant weather observed at this time

METAR text: ETNG 221050Z 20006KT CAVOK 00/M09 Q1006 NOSIG
Conditions at: ETNG (GEILENKIRCHEN(NA, DE) observed 1050 UTC 22 January 2019
Temperature: 0.0°C (32°F)
Dewpoint: -9.0°C (16°F) [RH = 51%]
Pressure (altimeter): 29.70 inches Hg (1006.0 mb)
Winds: from the SSW (200 degrees) at 7 MPH (6 knots; 3.1 m/s)
Visibility: 6 or more miles (10+ km)
Ceiling: ceiling and visibility are OK
Clouds: unknown
Weather: no significant weather observed at this time

METAR text: ETNG 220950Z 20006KT CAVOK 00/M09 Q1007 NOSIG
Conditions at: ETNG (GEILENKIRCHEN(NA, DE) observed 0950 UTC 22 January 2019
Temperature: 0.0°C (32°F)
Dewpoint: -9.0°C (16°F) [RH = 51%]
Pressure (altimeter): 29.73 inches Hg (1007.0 mb)
Winds: from the SSW (200 degrees) at 7 MPH (6 knots; 3.1 m/s)
Visibility: 6 or more miles (10+ km)
Ceiling: ceiling and visibility are OK
Clouds: unknown
Weather: no significant weather observed at this time

METAR text: ETNG 220850Z 15004KT CAVOK M02/M07 Q1007 NOSIG
Conditions at: ETNG (GEILENKIRCHEN(NA, DE) observed 0850 UTC 22 January 2019
Temperature: -2.0°C (28°F)
Dewpoint: -7.0°C (19°F) [RH = 69%]
Pressure (altimeter): 29.73 inches Hg (1007.0 mb)
Winds: from the SSE (150 degrees) at 5 MPH (4 knots; 2.1 m/s)
Visibility: 6 or more miles (10+ km)
Ceiling: ceiling and visibility are OK
Clouds: unknown
Weather: no significant weather observed at this time

METAR text: ETNG 220750Z 14002KT CAVOK M05/M08 Q1009 NOSIG
Conditions at: ETNG (GEILENKIRCHEN(NA, DE) observed 0750 UTC 22 January 2019
Temperature: -5.0°C (23°F)
Dewpoint: -8.0°C (18°F) [RH = 79%]
Pressure (altimeter): 29.79 inches Hg (1009.0 mb)
Winds: from the SE (140 degrees) at 2 MPH (2 knots; 1.0 m/s)
Visibility: 6 or more miles (10+ km)
Ceiling: ceiling and visibility are OK
Clouds: unknown
Weather: no significant weather observed at this time

METAR text: ETNG 220650Z 09005KT CAVOK M07/M09 Q1009 NOSIG
Conditions at: ETNG (GEILENKIRCHEN(NA, DE) observed 0650 UTC 22 January 2019
Temperature: -7.0°C (19°F)
Dewpoint: -9.0°C (16°F) [RH = 86%]
Pressure (altimeter): 29.79 inches Hg (1009.0 mb)
Winds: from the E (90 degrees) at 6 MPH (5 knots; 2.6 m/s)
Visibility: 6 or more miles (10+ km)
Ceiling: ceiling and visibility are OK
Clouds: unknown
Weather: no significant weather observed at this time

METAR text: ETNG 220550Z 11002KT CAVOK M08/M09 Q1010
Conditions at: ETNG (GEILENKIRCHEN(NA, DE) observed 0550 UTC 22 January 2019
Temperature: -8.0°C (18°F)
Dewpoint: -9.0°C (16°F) [RH = 92%]
Pressure (altimeter): 29.82 inches Hg (1010.0 mb)
Winds: from the ESE (110 degrees) at 2 MPH (2 knots; 1.0 m/s)
Visibility: 6 or more miles (10+ km)
Ceiling: ceiling and visibility are OK
Clouds: unknown
Weather: no significant weather observed at this time

METAR text: ETNG 220450Z 14001KT CAVOK M07/M09 Q1011
Conditions at: ETNG (GEILENKIRCHEN(NA, DE) observed 0450 UTC 22 January 2019
Temperature: -7.0°C (19°F)
Dewpoint: -9.0°C (16°F) [RH = 86%]
Pressure (altimeter): 29.85 inches Hg (1011.0 mb)
Winds: from the SE (140 degrees) at 1 MPH (1 knots; 0.5 m/s)
Visibility: 6 or more miles (10+ km)
Ceiling: ceiling and visibility are OK
Clouds: unknown
Weather: no significant weather observed at this time

METAR text: ETNG 220350Z 15003KT CAVOK M06/M09 Q1012
Conditions at: ETNG (GEILENKIRCHEN(NA, DE) observed 0350 UTC 22 January 2019
Temperature: -6.0°C (21°F)
Dewpoint: -9.0°C (16°F) [RH = 79%]
Pressure (altimeter): 29.88 inches Hg (1012.0 mb)
Winds: from the SSE (150 degrees) at 3 MPH (3 knots; 1.5 m/s)
Visibility: 6 or more miles (10+ km)
Ceiling: ceiling and visibility are OK
Clouds: unknown
Weather: no significant weather observed at this time

METAR text: ETNG 220250Z 16004KT CAVOK M04/M08 Q1013
Conditions at: ETNG (GEILENKIRCHEN(NA, DE) observed 0250 UTC 22 January 2019
Temperature: -4.0°C (25°F)
Dewpoint: -8.0°C (18°F) [RH = 74%]
Pressure (altimeter): 29.91 inches Hg (1013.0 mb)
Winds: from the SSE (160 degrees) at 5 MPH (4 knots; 2.1 m/s)
Visibility: 6 or more miles (10+ km)
Ceiling: ceiling and visibility are OK
Clouds: unknown
Weather: no significant weather observed at this time

METAR text: ETNG 220150Z 17005KT CAVOK M03/M08 Q1014
Conditions at: ETNG (GEILENKIRCHEN(NA, DE) observed 0150 UTC 22 January 2019
Temperature: -3.0°C (27°F)
Dewpoint: -8.0°C (18°F) [RH = 68%]
Pressure (altimeter): 29.94 inches Hg (1014.0 mb)
Winds: from the S (170 degrees) at 6 MPH (5 knots; 2.6 m/s)
Visibility: 6 or more miles (10+ km)
Ceiling: ceiling and visibility are OK
Clouds: unknown
Weather: no significant weather observed at this time

Forecast for: ETNG (GEILENKIRCHEN(NA, DE)
Text: TAF ETNG 231100Z 2312/2403 09008KT 9999 SCT030
Forecast period: 1200 to 1600 UTC 23 January 2019
Forecast type: FROM: standard forecast or significant change
Winds: from the E (90 degrees) at 9 MPH (8 knots; 4.1 m/s)
Visibility: 6 or more miles 10+ km)
Ceiling: at least 12,000 feet AGL
Clouds: scattered clouds at 3000 feet AGL
Weather: no significant weather forecast for this period
Text: PROB30
Forecast period: 1200 to 1600 UTC 23 January 2019
Forecast type: TEMPORARY: The following changes expected for less than half the time period
Visibility: 2.49 miles (4.01 km)
Ceiling: 800 feet AGL
Clouds: broken clouds at 800 feet AGL
Weather: -SG BR  (light snow grains, mist)
Text: TEMPO 2312/2316 4000 -SG BR BKN008
Forecast period: 1600 to 1800 UTC 23 January 2019
Forecast type: BECOMING: Conditions expected to become as follows by 1800 UTC 23 January 2019
Winds: from the NE (50 degrees) at 6 MPH (5 knots; 2.6 m/s)
Visibility: 6 or more miles 10+ km)
Ceiling: at least 12,000 feet AGL
Clouds: scattered clouds at 3000 feet AGL
Weather: no significant weather forecast for this period
Text: BECMG 2316/2318 05005KT
Forecast period: 1800 UTC 23 January 2019 to 0300 UTC 24 January 2019
Forecast type: BECOMING: Conditions expected to become as follows by 2000 UTC 23 January 2019
Winds: from the N (10 degrees) at 6 MPH (5 knots; 2.6 m/s)
Visibility: 6 or more miles 10+ km)
Ceiling: 1800 feet AGL
Clouds: broken clouds at 1800 feet AGL
Weather: no significant weather forecast for this period
Text: BECMG 2318/2320 01005KT BKN018
Forecast period: 2200 UTC 23 January 2019 to 0000 UTC 24 January 2019
Forecast type: TEMPORARY: The following changes expected for less than half the time period
Visibility: 1.55 miles (2.49 km)
Ceiling: 500 feet AGL
Clouds: broken clouds at 500 feet AGL
Weather: BR  (mist)